Delray Beach, FL

8:38 PM EDT on September 02, 2014 (GMT -0400)
Pompano Beach | Change Station
CLOSE
Current Station
Airport
Location: Pompano Beach,
Elevation: 20 ft
Nearby Weather Stations

Elev 20 ft 26.25 °N, 80.11 °W | Updated 45 minutes ago

Clear
Clear
85 °F
Feels Like 90 °F
N
10
Wind Variable Wind from SE

Today
High -- | Low -- °F
--% Chance of Precip.
Yesterday
High -- | Low -- °F
Precip. -- in
7:00 AM 7:38 PM
First Quarter, 56% visible
Pressure 30.02 in
Visibility 10.0 miles
Clouds Clear
Heat Index 90 °F
Dew Point 71 °F
Humidity 63%
Rainfall 0.00 in
Snow Depth Not available.
UV 0 out of 12
Pollen 5.30 out of 12
PM2.5 Good
Flu Activity Not available.
METAR KPMP 022353Z 13009KT 10SM CLR 29/22 A3002 RMK AO2 SLP166 T02940217 53006

More Conditions Fewer Conditions

Pressure 30.02 in
Visibility 10.0 miles
Clouds Clear
Heat Index 90 °F
Dew Point 71 °F
Humidity 63%
Rainfall 0.00 in
Snow Depth Not available.
UV 0 out of 12
Pollen 5.30 out of 12
PM2.5 Good
Flu Activity Not available.
METAR KPMP 022353Z 13009KT 10SM CLR 29/22 A3002 RMK AO2 SLP166 T02940217 53006

More Conditions Fewer Conditions

10-Day Weather Forecast

Almanac

Astronomy

Sep. 02, 2014 Rise Set
Actual Time 7:00 AM EDT 7:38 PM EDT
Civil Twilight 6:37 AM EDT 8:02 PM EDT
Nautical Twilight 6:09 AM EDT 8:29 PM EDT
Astronomical Twilight 5:41 AM EDT 8:57 PM EDT
Moon 2:03 PM EDT (9/2) 12:18 AM EDT (9/2)
Length of Visible Light 13h 25m
Length of Day
12h 38m
Tomorrow will be 1m 30s shorter.
First Quarter, 56% of the Moon is Illuminated
Today
First Quarter
Sep 8
Full
Sep 15
Last Quarter
Sep 24
New
Oct 1
First Quarter

Today's Extremes

State Highs State Lows

Community

WunderPhotos

Upload Photos

1,749,812 photos uploaded!

Nearby

Air Quality

  Air Quality AQ Index Pollutant
Yesterday Moderate
PM2.5
Yesterday Good
OZONE
Current Good
PM2.5
Tuesday Good
OZONE
Tuesday Good
PM2.5
Wednesday Good
OZONE
Wednesday Good
PM2.5
Thursday Good
OZONE
Thursday Good
PM2.5

Snow Depth

Station Depth Elevation
No new snow has been reported.

Earthquake Activity

City Distance Mag. Time & Date
No recent earthquake activity has been reported nearby.
Minimum magnitude displayed is 2.5.

Coastal Water Temperatures

Place Temperature
Lake Worth, FL 87.1 °F
Virginia Key, FL 88.0 °F

Nearby Weather Stations